Online since October of 2007


Active alerts


No alerts

Bigbaywx more information Bigbaywx


mount mesnard more information Mount Mesnard


visit our other weather sites:

Template documentation
and downloads

And another site


CBI


nearby metar reports

   
KSAW - Sawyer, Michigan
updated: Apr 19 2019 6:45 pm
clear  
clear  
   wind: nne 8.1 mph
wind: nne 8.1 mph
temperature: 50°F
wind chill: 46.4°F
dew point: 17.6°F
humidity: 28%
barometer: 29.96 inHg
clouds: clear
visibility: 10 mi
cloud details: clear
KSAW 192245Z 02007KT 10SM SKC 10/M08 A2996
KESC - Escanaba, Michigan
updated: Apr 19 2019 6:56 pm
clear  
clear  
   wind: nne 9.2 mph
wind: nne 9.2 mph
temperature: 53.6°F
dew point: 12.2°F
humidity: 19%
barometer: 29.95 inHg
clouds: clear
visibility: 10 mi
cloud details: clear
KESC 192256Z AUTO 03008KT 10SM CLR 12/M11 A2995 RMK AO2 SLP169 T01171106
KIMT - Iron Mountain, MI
updated: Apr 19 2019 6:54 pm
clear  
clear  
   wind: nne 8.1 mph
wind: nne 8.1 mph
temperature: 57.2°F
dew point: 12.2°F
humidity: 17%
barometer: 29.93 inHg
clouds: clear
visibility: 10 mi
cloud details: clear
KIMT 192254Z AUTO 02007KT 10SM CLR 14/M11 A2993 RMK AO2 SLP143 T01441111
KGRB - Green Bay, WI
updated: Apr 19 2019 6:53 pm
clear  
clear  
   wind: ne 16.1 mph
wind: ne 16.1 mph
temperature: 53.6°F
dew point: 26.6°F
humidity: 35%
barometer: 29.94 inHg
clouds: clear
visibility: 10 mi
cloud details: clear
KGRB 192253Z 05014KT 10SM CLR 12/M03 A2994 RMK AO2 SLP144 T01171028
KDET - Detroit, MI
updated: Apr 19 2019 6:53 pm
overcast  
overcast  
   wind: north 20.7 mph<br />Gust to 20.7 mph
wind: north 20.7 mph
Gust to 20.7 mph
temperature: 39.2°F
wind chill: 28.4°F
dew point: 33.8°F
humidity: 81%
barometer: 29.72 inHg
clouds: overcast
visibility: 10 mi
cloud details: overcast 396 m
KDET 192253Z 01018G28KT 10SM OVC013 04/01 A2972 RMK AO2 PK WND 36029/2236 SLP068 T00440011
 

script developed by  Saratoga-weather.org adapted for the template by  Weerstation Leuven

you find our weather info also at:

Weather Underground

midwestern weather network

WeatherlinkIP

Citizen Weather Observer Program (CWOP)

equipment we use:

weather-station
Davis VP2

weather-program
Davis Weatherlink.Com

Davis VP2

Davis Weatherlink.Com